Time;durP1;ratioP1;P1;durP2;ratioP2;P2;SDS_P1;SDS_P2;PMS_P1;PMS_P2;Temp;Humidity;BMP_temperature;BMP_pressure;BME280_temperature;BME280_humidity;BME280_pressure;Samples;Min_cycle;Max_cycle;Signal;HPM_P1;HPM_P2
2022/05/19 00:02:11;;;;;;;27.48;18.30;;;;;;;19.07;79.43;101651.41;5052753;28;20052;-68
2022/05/19 00:04:37;;;;;;;28.63;18.45;;;;;;;19.04;79.50;101649.97;5052589;28;20025;-68
2022/05/19 00:07:03;;;;;;;27.58;18.55;;;;;;;19.05;79.49;101643.53;5052643;28;20059;-68
2022/05/19 00:09:29;;;;;;;27.50;19.38;;;;;;;19.05;79.72;101652.47;5052361;28;20981;-68
2022/05/19 00:11:56;;;;;;;26.95;18.77;;;;;;;19.04;79.56;101648.09;5052523;28;20025;-68
2022/05/19 00:14:22;;;;;;;29.33;18.27;;;;;;;19.02;79.66;101638.56;5052661;28;20115;-68
2022/05/19 00:16:47;;;;;;;29.02;19.67;;;;;;;18.97;79.82;101639.28;5052521;28;20108;-68
2022/05/19 00:19:14;;;;;;;24.65;18.98;;;;;;;18.91;80.14;101629.38;5052409;28;20116;-68
2022/05/19 00:21:40;;;;;;;25.95;18.73;;;;;;;18.92;80.07;101627.53;5034727;28;20060;-68
2022/05/19 00:24:06;;;;;;;28.63;19.02;;;;;;;18.86;80.22;101623.84;5051931;28;20025;-68
2022/05/19 00:26:32;;;;;;;29.67;18.00;;;;;;;18.82;80.33;101623.50;5051684;28;20480;-67
2022/05/19 00:28:57;;;;;;;29.10;20.73;;;;;;;18.78;80.44;101616.91;5052228;28;20029;-68
2022/05/19 00:31:23;;;;;;;26.55;18.88;;;;;;;18.79;80.61;101620.47;5052232;28;20102;-68
2022/05/19 00:33:48;;;;;;;27.65;19.23;;;;;;;18.78;80.71;101616.09;5052015;28;20029;-68
2022/05/19 00:36:17;;;;;;;30.88;21.65;;;;;;;18.75;81.02;101619.25;5051951;28;20021;-68
2022/05/19 00:38:43;;;;;;;27.77;19.23;;;;;;;18.73;80.93;101605.13;5051921;28;20476;-68
2022/05/19 00:41:10;;;;;;;27.33;19.65;;;;;;;18.72;81.30;101603.50;5051879;28;20032;-68
2022/05/19 00:43:42;;;;;;;27.48;18.15;;;;;;;18.74;81.46;101606.78;5051898;28;20073;-68
2022/05/19 00:46:15;;;;;;;;;;;;;;;18.79;78.74;101605.06;5051911;28;20052;-68
2022/05/19 00:48:47;;;;;;;26.52;20.13;;;;;;;18.73;80.89;101603.28;5051819;28;20961;-68
2022/05/19 00:51:14;;;;;;;24.77;18.80;;;;;;;18.65;81.17;101591.94;5051768;28;20025;-68
2022/05/19 00:53:49;;;;;;;25.58;18.25;;;;;;;18.70;81.37;101597.50;5055272;28;20483;-68
2022/05/19 00:56:24;;;;;;;31.25;20.17;;;;;;;18.67;81.31;101595.25;5070569;28;20024;-68
2022/05/19 00:59:10;;;;;;;28.73;20.00;;;;;;;18.65;81.13;101590.06;5070940;28;20028;-68
2022/05/19 01:01:39;;;;;;;27.48;20.25;;;;;;;18.64;81.53;101583.03;5070662;28;20033;-68
2022/05/19 01:04:11;;;;;;;27.05;19.27;;;;;;;18.61;81.84;101583.50;5070764;28;20463;-68
2022/05/19 01:06:39;;;;;;;27.70;18.98;;;;;;;18.58;81.61;101578.56;5070597;28;20039;-68
2022/05/19 01:09:12;;;;;;;26.63;18.95;;;;;;;18.63;81.49;101584.09;5070633;28;20028;-68
2022/05/19 01:11:38;;;;;;;25.17;19.25;;;;;;;18.61;82.10;101583.50;5070504;28;20031;-68
2022/05/19 01:14:05;;;;;;;28.08;18.45;;;;;;;18.60;82.28;101588.09;5070570;28;20032;-68
2022/05/19 01:16:31;;;;;;;29.58;19.75;;;;;;;18.58;82.16;101586.66;5070421;28;20102;-68
2022/05/19 01:18:57;;;;;;;29.27;19.02;;;;;;;18.55;82.52;101579.03;5070372;28;20028;-68
2022/05/19 01:21:27;;;;;;;26.95;18.70;;;;;;;18.52;82.60;101574.06;5070311;28;20020;-68
2022/05/19 01:24:17;;;;;;;28.83;18.63;;;;;;;18.49;82.24;101563.72;5070368;28;20111;-68
2022/05/19 01:26:52;;;;;;;25.13;18.33;;;;;;;18.44;82.91;101561.72;5070061;28;20529;-68
2022/05/19 01:29:21;;;;;;;27.70;18.40;;;;;;;18.42;82.99;101553.06;5069605;28;20024;-67
2022/05/19 01:31:49;;;;;;;25.77;20.02;;;;;;;18.39;83.36;101546.22;5070191;28;20120;-68
2022/05/19 01:34:16;;;;;;;26.10;18.05;;;;;;;18.39;83.73;101542.69;5070188;28;20598;-68
2022/05/19 01:36:42;;;;;;;35.35;21.92;;;;;;;18.38;83.83;101538.34;5070163;28;20105;-68
2022/05/19 01:39:12;;;;;;;27.70;19.05;;;;;;;18.34;83.90;101546.09;5069774;28;20070;-67
2022/05/19 01:41:44;;;;;;;27.63;19.95;;;;;;;18.34;83.52;101540.69;5069835;28;20017;-68
2022/05/19 01:44:38;;;;;;;28.25;19.73;;;;;;;18.31;83.64;101545.72;5069708;28;20515;-67
2022/05/19 01:47:18;;;;;;;28.02;20.52;;;;;;;18.29;83.78;101540.56;5069773;28;20033;-68
2022/05/19 01:50:03;;;;;;;27.23;19.33;;;;;;;18.21;83.78;101532.81;5069903;28;20028;-68
2022/05/19 01:52:45;;;;;;;29.10;20.33;;;;;;;18.20;84.16;101533.03;5069715;28;20043;-68
2022/05/19 01:55:25;;;;;;;29.75;21.17;;;;;;;18.16;84.65;101528.09;5069719;28;20483;-68
2022/05/19 01:58:02;;;;;;;30.88;20.38;;;;;;;18.13;84.70;101531.25;5050279;28;20518;-68
2022/05/19 02:00:30;;;;;;;30.15;23.40;;;;;;;18.11;85.00;101529.84;5050418;28;20024;-68
2022/05/19 02:03:08;;;;;;;33.92;21.52;;;;;;;18.08;85.23;101536.50;5050373;28;20095;-67
2022/05/19 02:05:40;;;;;;;30.60;22.13;;;;;;;18.06;85.40;101529.69;5049987;28;20469;-67
2022/05/19 02:08:16;;;;;;;29.85;22.42;;;;;;;18.06;85.54;101529.69;5049965;28;20036;-68
2022/05/19 02:10:47;;;;;;;28.45;21.30;;;;;;;18.05;85.67;101536.97;5050400;28;20029;-68
2022/05/19 02:13:14;;;;;;;29.95;22.30;;;;;;;18.06;85.99;101533.22;5050222;28;20024;-68
2022/05/19 02:15:43;;;;;;;28.85;21.73;;;;;;;18.04;86.27;101521.00;5050158;28;20033;-68
2022/05/19 02:18:08;;;;;;;31.20;22.20;;;;;;;18.06;86.31;101529.69;5050088;28;20035;-67
2022/05/19 02:20:37;;;;;;;30.80;22.20;;;;;;;18.05;86.16;101526.19;5049960;28;20040;-68
2022/05/19 02:23:03;;;;;;;25.20;20.55;;;;;;;18.05;86.30;101522.63;5050065;28;20020;-67
2022/05/19 02:25:45;;;;;;;30.35;20.92;;;;;;;18.05;86.16;101530.72;5050092;28;20033;-68
2022/05/19 02:28:31;;;;;;;;;;;;;;;18.08;83.45;101524.91;5050581;28;20025;-67
2022/05/19 02:30:57;;;;;;;29.15;20.05;;;;;;;18.08;85.87;101523.03;5068103;28;20647;-68
2022/05/19 02:33:23;;;;;;;26.08;20.08;;;;;;;18.07;85.96;101526.75;5069149;28;20044;-68
2022/05/19 02:35:49;;;;;;;27.58;20.48;;;;;;;18.11;85.77;101524.44;5069104;28;20035;-68
2022/05/19 02:38:16;;;;;;;25.73;18.30;;;;;;;18.11;85.87;101525.25;5069024;28;20039;-68
2022/05/19 02:40:42;;;;;;;26.98;19.58;;;;;;;18.08;86.05;101533.00;5068996;28;20024;-68
2022/05/19 02:43:08;;;;;;;27.50;19.80;;;;;;;18.05;86.30;101528.88;5068825;28;20059;-68
2022/05/19 02:45:34;;;;;;;25.13;19.75;;;;;;;18.00;85.90;101530.59;5068626;28;20059;-68
2022/05/19 02:48:00;;;;;;;24.95;20.05;;;;;;;17.99;86.21;101537.06;5068945;28;20032;-68
2022/05/19 02:50:27;;;;;;;28.20;19.33;;;;;;;17.96;86.37;101536.47;5068855;28;20029;-68
2022/05/19 02:52:52;;;;;;;23.63;18.73;;;;;;;17.94;86.86;101538.56;5068834;28;20476;-68
2022/05/19 02:55:18;;;;;;;25.92;18.90;;;;;;;17.96;86.55;101544.56;5068761;28;20067;-68
2022/05/19 02:57:44;;;;;;;25.15;18.92;;;;;;;17.92;86.61;101547.94;5068847;28;20131;-68
2022/05/19 03:00:13;;;;;;;27.88;18.08;;;;;;;17.95;86.05;101548.31;5068281;28;20032;-68
2022/05/19 03:02:40;;;;;;;26.05;18.42;;;;;;;18.00;85.67;101538.69;5068629;28;20054;-68
2022/05/19 03:05:06;;;;;;;25.23;18.45;;;;;;;18.07;85.20;101544.84;5068506;28;20480;-68
2022/05/19 03:07:32;;;;;;;24.40;17.02;;;;;;;18.11;84.46;101551.44;5068785;28;20036;-68
2022/05/19 03:09:57;;;;;;;24.65;17.88;;;;;;;18.11;84.11;101543.34;5069195;28;20386;-68
2022/05/19 03:12:23;;;;;;;25.20;18.38;;;;;;;18.18;83.89;101544.03;5069466;28;20491;-68
2022/05/19 03:14:48;;;;;;;26.10;16.88;;;;;;;18.24;83.51;101553.13;5068283;28;20038;-67
2022/05/19 03:17:14;;;;;;;24.67;15.63;;;;;;;18.29;83.07;101585.66;5069025;28;20024;-67
2022/05/19 03:19:39;;;;;;;27.15;18.02;;;;;;;18.31;83.67;101681.59;5072695;28;20379;-68
2022/05/19 03:22:06;;;;;;;28.67;18.88;;;;;;;18.29;84.43;101659.38;5072742;28;20044;-68
2022/05/19 03:24:32;;;;;;;25.85;18.27;;;;;;;18.38;83.95;101660.72;5072498;28;20532;-68
2022/05/19 03:26:58;;;;;;;21.27;14.75;;;;;;;18.51;79.74;101675.91;5072383;28;20028;-67
2022/05/19 03:29:23;;;;;;;21.17;14.05;;;;;;;18.77;78.27;101696.34;5072481;28;20427;-67
2022/05/19 03:31:49;;;;;;;20.27;14.93;;;;;;;18.98;78.43;101691.47;5071966;28;20040;-67
2022/05/19 03:34:18;;;;;;;26.75;16.65;;;;;;;19.09;78.33;101684.44;5071978;28;20062;-67
2022/05/19 03:36:46;;;;;;;23.00;16.27;;;;;;;19.14;78.29;101684.56;5072297;28;20043;-67
2022/05/19 03:39:12;;;;;;;24.40;15.63;;;;;;;19.20;78.32;101705.25;5072301;28;20024;-67
2022/05/19 03:41:38;;;;;;;23.92;15.48;;;;;;;19.26;77.90;101705.16;5072457;28;20476;-68
2022/05/19 03:44:04;;;;;;;26.02;16.55;;;;;;;19.24;78.43;101685.63;5052941;28;20045;-68
2022/05/19 03:46:29;;;;;;;24.13;17.08;;;;;;;19.31;78.29;101692.78;5052911;28;20029;-68
2022/05/19 03:48:55;;;;;;;25.77;17.58;;;;;;;19.34;78.48;101695.88;5052641;28;20028;-68
2022/05/19 03:51:27;;;;;;;21.70;16.10;;;;;;;19.35;78.62;101694.81;5053022;28;20040;-68
2022/05/19 03:53:54;;;;;;;26.15;18.30;;;;;;;19.38;79.23;101696.22;5052866;28;20043;-68
2022/05/19 03:56:20;;;;;;;21.65;16.88;;;;;;;19.39;79.32;101692.47;5052718;28;20040;-68
2022/05/19 03:58:46;;;;;;;22.05;16.98;;;;;;;19.39;78.83;101706.81;5052688;28;20028;-68
2022/05/19 04:01:12;;;;;;;22.48;17.45;;;;;;;19.35;79.24;101708.34;5052483;28;20466;-68
2022/05/19 04:03:38;;;;;;;20.95;16.20;;;;;;;19.38;79.55;101713.28;5052563;28;20033;-68
2022/05/19 04:06:04;;;;;;;22.35;17.52;;;;;;;19.39;79.50;101692.47;5052498;28;20033;-68
2022/05/19 04:08:29;;;;;;;25.67;17.10;;;;;;;19.33;79.77;101693.41;5052402;28;20203;-68
2022/05/19 04:10:56;;;;;;;22.65;18.27;;;;;;;19.36;79.94;101699.19;5052450;28;20442;-68
2022/05/19 04:13:21;;;;;;;24.55;19.63;;;;;;;19.34;79.83;101700.47;5052324;28;21027;-68
2022/05/19 04:15:47;;;;;;;23.92;17.67;;;;;;;19.35;79.68;101691.28;5052526;28;20453;-68
2022/05/19 04:18:12;;;;;;;25.15;18.02;;;;;;;19.35;80.43;101712.94;5052408;28;20035;-68
2022/05/19 04:20:37;;;;;;;24.45;17.52;;;;;;;19.32;81.24;101706.09;5034276;28;20055;-68
2022/05/19 04:23:03;;;;;;;21.23;18.85;;;;;;;19.29;81.52;101708.47;5052174;28;20089;-68
2022/05/19 04:25:29;;;;;;;25.52;19.17;;;;;;;19.26;83.07;101704.34;5052267;28;20465;-73
2022/05/19 04:27:56;;;;;;;24.10;17.48;;;;;;;19.23;82.88;101699.38;5052144;28;20032;-73
2022/05/19 04:30:21;;;;;;;22.55;17.13;;;;;;;19.22;83.57;101711.25;5051348;28;20087;-74
2022/05/19 04:32:47;;;;;;;25.00;18.38;;;;;;;19.18;83.59;101708.22;5052044;28;20033;-73
2022/05/19 04:35:14;;;;;;;25.10;17.92;;;;;;;19.17;82.72;101700.31;5051561;28;20033;-73
2022/05/19 04:37:40;;;;;;;22.83;18.42;;;;;;;19.13;82.91;101682.94;5052109;28;20025;-73
2022/05/19 04:40:06;;;;;;;27.27;18.40;;;;;;;19.16;82.26;101701.38;5061292;28;20033;-73
2022/05/19 04:42:32;;;;;;;25.00;18.00;;;;;;;19.14;82.11;101693.50;5071020;28;20375;-73
2022/05/19 04:44:58;;;;;;;26.30;19.38;;;;;;;19.22;82.05;101697.75;5052509;28;20053;-73
2022/05/19 04:47:23;;;;;;;24.05;18.88;;;;;;;19.24;81.50;101692.94;5051814;28;20041;-73
2022/05/19 04:49:49;;;;;;;20.33;14.00;;;;;;;19.28;81.37;101688.69;5051540;28;20028;-73
2022/05/19 04:52:14;;;;;;;26.13;16.98;;;;;;;19.34;82.23;101681.53;5058675;28;20064;-73
2022/05/19 04:54:40;;;;;;;20.13;15.30;;;;;;;19.37;81.60;101700.00;5070930;28;20132;-73
2022/05/19 04:57:07;;;;;;;22.77;16.02;;;;;;;19.41;80.47;101691.19;5070685;28;20036;-73
2022/05/19 04:59:36;;;;;;;19.15;15.15;;;;;;;19.44;80.71;101689.84;5070756;28;20027;-73
2022/05/19 05:02:02;;;;;;;21.58;15.95;;;;;;;19.48;80.25;101694.56;5070390;28;20081;-73
2022/05/19 05:04:27;;;;;;;19.95;14.00;;;;;;;19.50;79.53;101699.75;5070504;28;20111;-73
2022/05/19 05:06:54;;;;;;;23.98;17.05;;;;;;;19.53;79.49;101696.56;5070211;28;20017;-73
2022/05/19 05:09:19;;;;;;;23.27;15.27;;;;;;;19.55;78.90;101697.19;5070114;28;20048;-73
2022/05/19 05:11:45;;;;;;;20.15;13.18;;;;;;;19.54;79.31;101684.69;5070118;28;20605;-73
2022/05/19 05:14:10;;;;;;;21.00;14.07;;;;;;;19.53;79.26;101691.16;5070299;28;20036;-73
2022/05/19 05:16:36;;;;;;;20.20;13.90;;;;;;;19.54;78.85;101700.09;5052394;28;20174;-73
2022/05/19 05:19:01;;;;;;;22.05;14.00;;;;;;;19.53;79.61;101688.47;5061481;28;20036;-73
2022/05/19 05:21:26;;;;;;;19.85;13.25;;;;;;;19.51;81.23;101682.47;5058969;28;21045;-74
2022/05/19 05:23:52;;;;;;;14.90;11.23;;;;;;;19.55;79.04;101677.41;5051094;28;20064;-73
2022/05/19 05:26:17;;;;;;;20.77;12.65;;;;;;;19.57;78.82;101686.94;5033280;28;20055;-73
2022/05/19 05:28:42;;;;;;;17.38;13.00;;;;;;;19.57;79.24;101677.97;5051044;28;20247;-73
2022/05/19 05:31:08;;;;;;;17.83;12.60;;;;;;;19.60;78.43;101678.34;5069808;28;20035;-73
2022/05/19 05:33:33;;;;;;;17.20;11.73;;;;;;;19.58;78.22;101668.81;5069993;28;20512;-73
2022/05/19 05:35:59;;;;;;;16.65;11.52;;;;;;;19.55;78.47;101675.53;5069483;28;20040;-73
2022/05/19 05:38:24;;;;;;;18.00;12.48;;;;;;;19.48;78.69;101642.34;5070142;28;20418;-73
2022/05/19 05:40:50;;;;;;;17.60;11.10;;;;;;;19.49;78.44;101641.28;5069655;28;20028;-73
2022/05/19 05:43:18;;;;;;;14.77;8.75;;;;;;;19.45;78.13;101632.81;5069671;28;20025;-73
2022/05/19 05:45:45;;;;;;;14.65;9.98;;;;;;;19.41;78.30;101637.06;5059660;28;20080;-73
2022/05/19 05:48:10;;;;;;;15.10;10.00;;;;;;;19.39;78.73;101646.50;5053664;28;20035;-73
2022/05/19 05:50:36;;;;;;;15.43;9.82;;;;;;;19.31;79.41;101634.13;5069328;28;20032;-73
2022/05/19 05:53:02;;;;;;;16.05;10.50;;;;;;;19.26;80.30;101623.19;5069295;28;20081;-73
2022/05/19 05:55:28;;;;;;;15.15;9.07;;;;;;;19.16;81.19;101617.56;5069246;28;20052;-73
2022/05/19 05:57:54;;;;;;;10.25;7.07;;;;;;;19.00;81.46;101622.59;5054717;28;20400;-74
2022/05/19 06:00:20;;;;;;;14.35;7.30;;;;;;;18.87;83.98;101593.09;5032293;28;20029;-73
2022/05/19 06:02:46;;;;;;;8.50;6.47;;;;;;;18.81;83.31;101604.81;5050134;28;20037;-74
2022/05/19 06:05:12;;;;;;;9.60;5.13;;;;;;;18.74;83.40;101585.16;5050066;28;20550;-74
2022/05/19 06:07:39;;;;;;;11.13;5.95;;;;;;;18.65;85.03;101602.75;5050118;28;20086;-74
2022/05/19 06:10:05;;;;;;;9.57;5.57;;;;;;;18.56;86.72;101610.38;5032564;28;20115;-74
2022/05/19 06:12:30;;;;;;;10.25;5.90;;;;;;;18.50;86.14;101577.03;5050315;28;20032;-74
2022/05/19 06:14:56;;;;;;;10.70;6.57;;;;;;;18.46;86.57;101562.31;5049797;28;20597;-74
2022/05/19 06:17:25;;;;;;;10.32;6.45;;;;;;;18.50;86.27;101570.81;5050340;28;20393;-74
2022/05/19 06:19:51;;;;;;;9.90;6.40;;;;;;;18.49;85.90;101561.03;5049757;28;20954;-75
2022/05/19 06:22:17;;;;;;;10.93;6.20;;;;;;;18.56;85.88;101597.69;5049762;28;20075;-75
2022/05/19 06:24:43;;;;;;;10.52;6.88;;;;;;;18.62;87.23;101588.66;5049849;28;20033;-75
2022/05/19 06:27:09;;;;;;;11.45;6.80;;;;;;;18.65;86.88;101587.38;5066476;28;20024;-75
2022/05/19 06:29:34;;;;;;;15.93;7.10;;;;;;;18.77;87.86;101604.47;5068641;28;20056;-75
2022/05/19 06:31:59;;;;;;;11.75;6.38;;;;;;;18.82;88.31;101612.69;5068904;28;20039;-75
2022/05/19 06:34:25;;;;;;;9.48;6.45;;;;;;;18.88;88.99;101602.00;5069074;28;20090;-75
2022/05/19 06:36:50;;;;;;;10.68;7.32;;;;;;;18.93;89.78;101586.72;5068694;28;20032;-75
2022/05/19 06:39:19;;;;;;;12.30;7.45;;;;;;;18.98;89.77;101583.34;5064273;28;20025;-74
2022/05/19 06:42:03;;;;;;;13.20;7.28;;;;;;;18.98;88.31;101578.75;5050922;28;20499;-75
2022/05/19 06:44:34;;;;;;;11.65;6.82;;;;;;;19.05;89.93;101571.34;5068737;28;20554;-75
2022/05/19 06:47:00;;;;;;;15.77;7.82;;;;;;;19.10;88.33;101565.25;5057145;28;20414;-75
2022/05/19 06:49:26;;;;;;;14.18;8.50;;;;;;;19.17;88.72;101573.22;5049447;28;20021;-75
2022/05/19 06:51:52;;;;;;;13.27;9.13;;;;;;;19.17;88.30;101574.03;5049303;28;20047;-74
2022/05/19 06:54:18;;;;;;;15.02;8.57;;;;;;;19.18;87.17;101574.88;5048984;28;20037;-74
2022/05/19 06:56:43;;;;;;;14.00;8.52;;;;;;;19.19;87.64;101585.44;5049694;28;20029;-69
2022/05/19 06:59:09;;;;;;;17.17;9.45;;;;;;;19.25;87.58;101583.66;5049639;28;20036;-69
2022/05/19 07:01:35;;;;;;;15.18;9.32;;;;;;;19.28;87.03;101566.97;5049488;28;20033;-68
2022/05/19 07:04:00;;;;;;;15.93;9.80;;;;;;;19.35;86.26;101577.66;5049511;28;20498;-69
2022/05/19 07:06:26;;;;;;;17.38;11.18;;;;;;;19.41;88.04;101580.25;5049034;28;20040;-69
2022/05/19 07:08:52;;;;;;;15.20;11.10;;;;;;;19.47;87.12;101573.88;5049438;28;20039;-69
2022/05/19 07:11:26;;;;;;;15.93;11.40;;;;;;;19.52;87.65;101594.81;5049563;28;20476;-69
2022/05/19 07:13:56;;;;;;;15.50;11.27;;;;;;;19.53;86.13;101574.81;5049390;28;20044;-69
2022/05/19 07:16:21;;;;;;;16.23;12.15;;;;;;;19.58;86.45;101585.75;5049367;28;20029;-69
2022/05/19 07:18:47;;;;;;;16.50;11.45;;;;;;;19.63;86.66;101577.72;5049227;28;20503;-69
2022/05/19 07:21:12;;;;;;;23.85;14.05;;;;;;;19.66;87.30;101563.75;5049337;28;20079;-69
2022/05/19 07:23:39;;;;;;;18.15;12.30;;;;;;;19.73;86.61;101571.75;5049388;28;20029;-69
2022/05/19 07:26:06;;;;;;;17.48;12.90;;;;;;;19.78;86.83;101562.88;5049323;28;20116;-69
2022/05/19 07:28:31;;;;;;;19.05;12.93;;;;;;;19.82;86.38;101545.09;5049448;28;20041;-69
2022/05/19 07:30:57;;;;;;;16.92;11.35;;;;;;;19.90;85.78;101552.84;5049182;28;20079;-69
2022/05/19 07:33:22;;;;;;;18.30;12.85;;;;;;;19.99;84.51;101550.56;5049314;28;20025;-70
2022/05/19 07:35:50;;;;;;;18.65;11.98;;;;;;;20.02;84.78;101523.84;5049262;28;20116;-70
2022/05/19 07:38:16;;;;;;;18.13;12.60;;;;;;;20.10;83.72;101515.31;5049091;28;20090;-70
2022/05/19 07:40:43;;;;;;;17.35;12.20;;;;;;;20.18;83.00;101527.63;5048818;28;20032;-70
2022/05/19 07:45:52;;;;;;;19.73;12.45;;;;;;;20.38;82.47;101535.28;5068158;28;20063;-69
2022/05/19 07:48:18;;;;;;;17.58;12.45;;;;;;;20.45;84.22;101568.47;5068232;28;20036;-69
2022/05/19 07:50:43;;;;;;;19.48;13.65;;;;;;;20.49;82.78;101574.22;5068386;28;20028;-69
2022/05/19 07:53:10;;;;;;;16.70;12.07;;;;;;;20.47;81.50;101579.06;5068277;28;20111;-69
2022/05/19 07:55:36;;;;;;;18.48;14.90;;;;;;;20.40;81.50;101587.34;5067927;28;20029;-69
2022/05/19 07:58:02;;;;;;;17.77;13.52;;;;;;;20.43;82.21;101584.13;5068070;28;20029;-68
2022/05/19 08:00:27;;;;;;;17.23;13.18;;;;;;;20.56;82.47;101589.25;5068128;28;20098;-69
2022/05/19 08:02:53;;;;;;;18.40;13.55;;;;;;;20.74;81.20;101581.97;5068202;28;20098;-68
2022/05/19 08:05:18;;;;;;;20.25;13.98;;;;;;;20.98;79.96;101580.72;5067878;28;20037;-69
2022/05/19 08:07:43;;;;;;;20.25;14.38;;;;;;;21.54;78.19;101567.16;5052251;28;20037;-69
2022/05/19 08:10:21;;;;;;;20.75;14.13;;;;;;;22.25;75.00;101567.13;5052584;28;20465;-69
2022/05/19 08:15:37;;;;;;;17.92;12.27;;;;;;;25.63;64.50;101565.31;5060650;28;20070;-69
2022/05/19 08:18:11;;;;;;;22.00;14.25;;;;;;;27.38;59.08;101556.53;5071593;28;20047;-68
2022/05/19 08:20:39;;;;;;;16.42;10.77;;;;;;;28.81;53.45;101544.22;5071465;28;20024;-69
2022/05/19 08:23:07;;;;;;;16.63;10.70;;;;;;;29.84;47.53;101543.00;5071354;28;20028;-69
2022/05/19 08:25:33;;;;;;;18.42;10.40;;;;;;;30.35;44.68;101540.97;5071284;28;21067;-69
2022/05/19 08:27:59;;;;;;;12.95;10.55;;;;;;;31.06;44.75;101545.72;5071430;28;20375;-69
2022/05/19 08:30:25;;;;;;;15.90;10.05;;;;;;;31.79;43.60;101540.53;5053497;28;20115;-69
2022/05/19 08:32:50;;;;;;;11.90;9.07;;;;;;;32.31;41.02;101546.84;5071438;28;20395;-69
2022/05/19 08:35:16;;;;;;;11.85;7.95;;;;;;;32.69;40.12;101561.91;5071410;28;20036;-69
2022/05/19 08:37:41;;;;;;;15.10;8.13;;;;;;;32.96;39.62;101550.44;5068605;28;20052;-69
2022/05/19 08:40:10;;;;;;;13.55;8.10;;;;;;;33.17;39.26;101561.56;5052048;28;20545;-69
2022/05/19 08:42:42;;;;;;;13.63;8.18;;;;;;;33.09;39.18;101558.84;5051788;28;20043;-69
2022/05/19 08:45:40;;;;;;;15.77;8.52;;;;;;;33.23;39.94;101555.84;5051281;28;20144;-69
2022/05/19 08:48:19;;;;;;;11.27;7.82;;;;;;;33.21;39.68;101550.66;5047623;28;20049;-69
2022/05/19 08:50:47;;;;;;;11.95;8.57;;;;;;;33.01;36.54;101557.72;5051937;28;20035;-69
2022/05/19 08:53:13;;;;;;;11.02;7.97;;;;;;;33.04;37.97;101543.28;5051959;28;20361;-70
2022/05/19 08:55:45;;;;;;;15.18;7.70;;;;;;;32.09;38.77;101547.88;5051650;28;20025;-69
2022/05/19 08:58:20;;;;;;;12.27;7.82;;;;;;;30.61;43.54;101545.81;5051466;28;20025;-69
2022/05/19 09:00:56;;;;;;;11.48;7.63;;;;;;;29.45;44.17;101536.13;5051588;28;20037;-69
2022/05/19 09:03:35;;;;;;;10.48;7.53;;;;;;;28.44;46.71;101541.63;5051640;28;20082;-70
2022/05/19 09:06:24;;;;;;;14.35;7.80;;;;;;;27.63;49.42;101528.00;5051558;28;20029;-69
2022/05/19 09:09:16;;;;;;;10.18;7.88;;;;;;;27.19;51.11;101523.63;5051283;28;20040;-69
2022/05/19 09:12:15;;;;;;;13.75;7.82;;;;;;;26.87;51.88;101523.13;5051534;28;20479;-69
2022/05/19 09:14:41;;;;;;;12.88;7.75;;;;;;;26.76;53.33;101526.28;5050798;28;20041;-69
2022/05/19 09:17:09;;;;;;;11.10;7.47;;;;;;;26.62;51.88;101529.69;5051096;28;20025;-69
2022/05/19 09:19:40;;;;;;;14.30;7.40;;;;;;;26.35;53.42;101529.34;5051336;28;20025;-69
2022/05/19 09:22:11;;;;;;;;;;;;;;;26.32;54.03;101527.19;5051761;28;20039;-69
2022/05/19 09:24:36;;;;;;;11.68;8.27;;;;;;;26.01;55.34;101528.22;5051311;28;20049;-69
2022/05/19 09:27:03;;;;;;;10.18;6.82;;;;;;;25.92;55.00;101519.00;5051152;28;20455;-69
2022/05/19 09:29:51;;;;;;;15.40;6.82;;;;;;;25.80;53.83;101519.31;5051190;28;20032;-69
2022/05/19 09:32:37;;;;;;;9.90;6.93;;;;;;;25.84;54.17;101525.06;5051026;28;20415;-69
2022/05/19 09:35:19;;;;;;;13.07;7.90;;;;;;;25.91;54.63;101520.13;5050886;28;20036;-69
2022/05/19 09:37:47;;;;;;;12.40;6.28;;;;;;;25.94;53.62;101505.06;5051027;28;20056;-69
2022/05/19 09:40:12;;;;;;;8.00;6.05;;;;;;;26.14;54.52;101513.09;5050769;28;20036;-69
2022/05/19 09:43:08;;;;;;;10.00;5.80;;;;;;;26.26;53.82;101510.00;5050509;28;20028;-69
2022/05/19 09:45:42;;;;;;;12.30;7.03;;;;;;;26.18;52.26;101508.69;5050640;28;20296;-69
2022/05/19 09:48:09;;;;;;;9.23;5.45;;;;;;;26.22;54.52;101515.22;5050714;28;20051;-69
2022/05/19 09:50:47;;;;;;;9.45;6.20;;;;;;;26.27;53.81;101510.81;5050730;28;20102;-69
2022/05/19 09:53:25;;;;;;;11.30;7.15;;;;;;;26.26;53.45;101509.19;5050808;28;20021;-69
2022/05/19 09:56:00;;;;;;;11.10;4.97;;;;;;;26.25;54.71;101513.81;5050598;28;20047;-69
2022/05/19 09:58:30;;;;;;;11.38;5.65;;;;;;;26.23;54.37;101513.31;5050629;28;20040;-69
2022/05/19 10:01:03;;;;;;;8.52;5.43;;;;;;;26.26;55.12;101507.25;5032153;28;20334;-69
2022/05/19 10:03:43;;;;;;;10.68;6.30;;;;;;;26.33;54.66;101502.28;5032425;28;20399;-68
2022/05/19 10:06:24;;;;;;;11.93;5.60;;;;;;;26.34;54.43;101498.44;5050180;28;20507;-69
2022/05/19 10:09:10;;;;;;;9.50;5.33;;;;;;;26.36;53.82;101493.50;5054870;28;20596;-69
2022/05/19 10:11:48;;;;;;;8.50;4.97;;;;;;;26.38;53.49;101485.84;5055846;28;20063;-70
2022/05/19 10:14:29;;;;;;;10.93;6.25;;;;;;;26.41;52.15;101479.78;5056823;28;20028;-68
2022/05/19 10:17:08;;;;;;;8.77;5.10;;;;;;;26.47;53.63;101471.53;5057176;28;20032;-69
2022/05/19 10:19:43;;;;;;;12.80;6.40;;;;;;;26.53;53.51;101459.44;5057287;28;20032;-68
2022/05/19 10:22:27;;;;;;;8.18;4.95;;;;;;;26.52;49.88;101447.69;5056004;28;20405;-67
2022/05/19 10:25:06;;;;;;;10.27;6.63;;;;;;;26.57;51.22;101424.94;5057620;28;20365;-68
2022/05/19 10:31:18;;;;;;;6.65;4.93;;;;;;;26.78;48.79;101440.03;5056092;28;20082;-69
2022/05/19 10:33:58;;;;;;;7.65;5.25;;;;;;;26.77;48.70;101435.63;5054014;28;20039;-74
2022/05/19 10:36:33;;;;;;;10.52;5.57;;;;;;;26.84;49.09;101435.31;5054227;28;20641;-74
2022/05/19 10:39:04;;;;;;;10.27;4.88;;;;;;;26.93;48.35;101429.97;5055814;28;20040;-74
2022/05/19 10:41:31;;;;;;;;;;;;;;;26.96;49.40;101434.88;5056987;28;20052;-73
2022/05/19 10:44:21;;;;;;;8.35;5.38;;;;;;;26.90;49.68;101439.59;5055929;28;19917;-75
2022/05/19 10:47:02;;;;;;;8.90;5.10;;;;;;;26.96;49.06;101437.59;5055940;28;20041;-75
2022/05/19 10:49:53;;;;;;;6.05;5.03;;;;;;;27.17;49.75;101440.91;5055582;28;20487;-75
2022/05/19 10:52:31;;;;;;;6.75;4.80;;;;;;;27.46;48.67;101441.63;5056651;28;20028;-75
2022/05/19 10:55:17;;;;;;;10.32;5.35;;;;;;;27.60;48.06;101444.44;5055902;28;20024;-74
2022/05/19 10:58:24;;;;;;;10.52;5.47;;;;;;;27.46;47.76;101430.66;5056389;28;20115;-76
2022/05/19 11:01:10;;;;;;;13.00;5.82;;;;;;;27.35;48.27;101418.22;5055292;28;20065;-76
2022/05/19 11:03:41;;;;;;;8.18;4.90;;;;;;;27.38;46.48;101420.38;5055411;28;20123;-73
2022/05/19 11:06:34;;;;;;;9.52;5.00;;;;;;;27.31;47.41;101419.94;5056457;28;20036;-76
2022/05/19 11:09:22;;;;;;;8.38;4.40;;;;;;;27.30;48.26;101427.34;5056650;28;20020;-75
2022/05/19 11:11:56;;;;;;;6.22;4.50;;;;;;;27.23;47.56;101426.06;5055092;28;20046;-74
2022/05/19 11:14:43;;;;;;;10.05;4.88;;;;;;;27.07;48.32;101430.91;5056866;28;20048;-74
2022/05/19 11:17:22;;;;;;;10.70;4.60;;;;;;;26.88;48.01;101431.69;5056115;28;20480;-74
2022/05/19 11:20:18;;;;;;;5.63;3.83;;;;;;;26.66;48.57;101418.53;5056248;28;20103;-72
2022/05/19 11:22:50;;;;;;;7.38;4.28;;;;;;;26.50;48.87;101413.50;5054918;28;20035;-73
2022/05/19 11:28:41;;;;;;;14.05;6.03;;;;;;;26.26;50.05;101418.94;5052370;28;20111;-76
2022/05/19 11:31:15;;;;;;;7.53;4.82;;;;;;;26.09;48.40;101424.81;5062742;28;20036;-74
2022/05/19 11:33:46;;;;;;;8.90;5.00;;;;;;;25.97;49.06;101420.56;5068394;28;20028;-74
2022/05/19 11:36:18;;;;;;;5.75;3.72;;;;;;;25.85;49.67;101431.03;5064084;28;20024;-74
2022/05/19 11:38:50;;;;;;;5.38;3.78;;;;;;;25.73;51.66;101438.78;5053601;28;20412;-74
2022/05/19 11:41:19;;;;;;;;;;;;;;;25.69;51.84;101435.78;5071198;28;20481;-74